Time,TemperatureF,DewpointF,PressureIn,WindDirection,WindDirectionDegrees,WindSpeedMPH,WindSpeedGustMPH,Humidity,HourlyPrecipIn,Conditions,Clouds,dailyrainin,SoftwareType,DateUTC
2013-04-04 00:00:00,75.0,75.0,30.05,ESE,120,17.0,18.0,98,-99.99,,,-99.99,,2013-04-04 04:00:00,
2013-04-04 00:22:00,75.0,75.0,30.05,ESE,120,17.0,18.0,98,-99.99,,,-99.99,,2013-04-04 04:22:00,
2013-04-04 00:32:00,75.0,75.0,30.05,ESE,120,17.0,18.0,98,-99.99,,,-99.99,,2013-04-04 04:32:00,
2013-04-04 00:42:00,75.0,75.0,30.05,ESE,120,17.0,18.0,98,-99.99,,,-99.99,,2013-04-04 04:42:00,
2013-04-04 00:52:00,75.0,75.0,30.05,ESE,120,17.0,18.0,98,-99.99,,,-99.99,,2013-04-04 04:52:00,
2013-04-04 01:00:00,75.0,75.0,30.05,ESE,120,15.0,16.0,99,-99.99,,,-99.99,,2013-04-04 05:00:00,
2013-04-04 01:22:00,75.0,75.0,30.05,ESE,120,15.0,16.0,99,-99.99,,,-99.99,,2013-04-04 05:22:00,
2013-04-04 01:32:00,75.0,75.0,30.05,ESE,120,15.0,16.0,99,-99.99,,,-99.99,,2013-04-04 05:32:00,
2013-04-04 01:41:00,75.0,75.0,30.05,ESE,120,15.0,16.0,99,-99.99,,,-99.99,,2013-04-04 05:41:00,
2013-04-04 01:52:00,75.0,75.0,30.05,ESE,120,15.0,16.0,99,-99.99,,,-99.99,,2013-04-04 05:52:00,
2013-04-04 02:00:00,75.0,75.0,30.04,ESE,120,16.0,17.0,98,-99.99,,,-99.99,,2013-04-04 06:00:00,
2013-04-04 02:21:00,75.0,75.0,30.04,ESE,120,16.0,17.0,98,-99.99,,,-99.99,,2013-04-04 06:21:00,
2013-04-04 02:32:00,75.0,75.0,30.04,ESE,120,16.0,17.0,98,-99.99,,,-99.99,,2013-04-04 06:32:00,
2013-04-04 02:42:00,75.0,75.0,30.04,ESE,120,16.0,17.0,98,-99.99,,,-99.99,,2013-04-04 06:42:00,
2013-04-04 02:51:00,75.0,75.0,30.04,ESE,120,16.0,17.0,98,-99.99,,,-99.99,,2013-04-04 06:51:00,
2013-04-04 03:00:00,75.0,75.0,30.02,ESE,120,17.0,18.0,98,-99.99,,,-99.99,,2013-04-04 07:00:00,
2013-04-04 03:21:00,75.0,75.0,30.02,ESE,120,17.0,18.0,98,-99.99,,,-99.99,,2013-04-04 07:21:00,
2013-04-04 03:31:00,75.0,75.0,30.02,ESE,120,17.0,18.0,98,-99.99,,,-99.99,,2013-04-04 07:31:00,
2013-04-04 03:42:00,75.0,75.0,30.02,ESE,120,17.0,18.0,98,-99.99,,,-99.99,,2013-04-04 07:42:00,
2013-04-04 03:51:00,75.0,75.0,30.02,ESE,120,17.0,18.0,98,-99.99,,,-99.99,,2013-04-04 07:51:00,
2013-04-04 04:00:00,75.0,75.0,30.00,ESE,120,16.0,18.0,98,-99.99,,,-99.99,,2013-04-04 08:00:00,
2013-04-04 04:32:00,75.0,75.0,30.00,ESE,120,16.0,18.0,98,-99.99,,,-99.99,,2013-04-04 08:32:00,
2013-04-04 04:42:00,75.0,75.0,30.00,ESE,120,16.0,18.0,98,-99.99,,,-99.99,,2013-04-04 08:42:00,
2013-04-04 04:52:00,75.0,75.0,30.00,ESE,120,16.0,18.0,98,-99.99,,,-99.99,,2013-04-04 08:52:00,
2013-04-04 05:00:00,75.0,75.0,29.99,ESE,120,16.0,17.0,98,-99.99,,,-99.99,,2013-04-04 09:00:00,
2013-04-04 05:21:00,75.0,75.0,29.99,ESE,120,16.0,17.0,98,-99.99,,,-99.99,,2013-04-04 09:21:00,
2013-04-04 05:32:00,75.0,75.0,29.99,ESE,120,16.0,17.0,98,-99.99,,,-99.99,,2013-04-04 09:32:00,
2013-04-04 05:42:00,75.0,75.0,29.99,ESE,120,16.0,17.0,98,-99.99,,,-99.99,,2013-04-04 09:42:00,
2013-04-04 05:52:00,75.0,75.0,29.99,ESE,120,16.0,17.0,98,-99.99,,,-99.99,,2013-04-04 09:52:00,
2013-04-04 06:00:00,75.0,75.0,30.00,SE,140,16.0,17.0,98,-99.99,,,-99.99,,2013-04-04 10:00:00,
2013-04-04 06:22:00,75.0,75.0,30.00,SE,140,16.0,17.0,98,-99.99,,,-99.99,,2013-04-04 10:22:00,
2013-04-04 06:32:00,75.0,75.0,30.00,SE,140,16.0,17.0,98,-99.99,,,-99.99,,2013-04-04 10:32:00,
2013-04-04 06:41:00,75.0,75.0,30.00,SE,140,16.0,17.0,98,-99.99,,,-99.99,,2013-04-04 10:41:00,
2013-04-04 06:52:00,75.0,75.0,30.00,SE,140,16.0,17.0,98,-99.99,,,-99.99,,2013-04-04 10:52:00,
2013-04-04 07:00:00,75.0,75.0,30.01,SE,140,14.0,15.0,98,-99.99,,,-99.99,,2013-04-04 11:00:00,
2013-04-04 07:21:00,75.0,75.0,30.01,SE,140,14.0,15.0,98,-99.99,,,-99.99,,2013-04-04 11:21:00,
2013-04-04 07:31:00,75.0,75.0,30.01,SE,140,14.0,15.0,98,-99.99,,,-99.99,,2013-04-04 11:31:00,
2013-04-04 07:42:00,75.0,75.0,30.01,SE,140,14.0,15.0,98,-99.99,,,-99.99,,2013-04-04 11:42:00,
2013-04-04 07:52:00,75.0,75.0,30.01,SE,140,14.0,15.0,98,-99.99,,,-99.99,,2013-04-04 11:52:00,
2013-04-04 08:00:00,75.0,75.0,30.02,SE,140,15.0,16.0,98,-99.99,,,-99.99,,2013-04-04 12:00:00,
2013-04-04 08:21:00,75.0,75.0,30.02,SE,140,15.0,16.0,98,-99.99,,,-99.99,,2013-04-04 12:21:00,
2013-04-04 08:32:00,75.0,75.0,30.02,SE,140,15.0,16.0,98,-99.99,,,-99.99,,2013-04-04 12:32:00,
2013-04-04 08:42:00,75.0,75.0,30.02,SE,140,15.0,16.0,98,-99.99,,,-99.99,,2013-04-04 12:42:00,
2013-04-04 08:51:00,75.0,75.0,30.02,SE,140,15.0,16.0,98,-99.99,,,-99.99,,2013-04-04 12:51:00,
2013-04-04 09:00:00,76.0,76.0,30.02,SE,140,16.0,17.0,99,-99.99,,,-99.99,,2013-04-04 13:00:00,
2013-04-04 09:21:00,76.0,76.0,30.02,SE,140,16.0,17.0,99,-99.99,,,-99.99,,2013-04-04 13:21:00,
2013-04-04 09:31:00,76.0,76.0,30.02,SE,140,16.0,17.0,99,-99.99,,,-99.99,,2013-04-04 13:31:00,
2013-04-04 09:41:00,76.0,76.0,30.02,SE,140,16.0,17.0,99,-99.99,,,-99.99,,2013-04-04 13:41:00,
2013-04-04 09:52:00,76.0,76.0,30.02,SE,140,16.0,17.0,99,-99.99,,,-99.99,,2013-04-04 13:52:00,
2013-04-04 10:00:00,76.0,76.0,30.02,SSE,150,15.0,16.0,99,-99.99,,,-99.99,,2013-04-04 14:00:00,
2013-04-04 10:21:00,76.0,76.0,30.02,SSE,150,15.0,16.0,99,-99.99,,,-99.99,,2013-04-04 14:21:00,
2013-04-04 10:32:00,76.0,76.0,30.02,SSE,150,15.0,16.0,99,-99.99,,,-99.99,,2013-04-04 14:32:00,
2013-04-04 10:42:00,76.0,76.0,30.02,SSE,150,15.0,16.0,99,-99.99,,,-99.99,,2013-04-04 14:42:00,
2013-04-04 10:52:00,76.0,76.0,30.02,SSE,150,15.0,16.0,99,-99.99,,,-99.99,,2013-04-04 14:52:00,
2013-04-04 11:00:00,76.0,76.0,30.01,SSE,150,17.0,18.0,99,-99.99,,,-99.99,,2013-04-04 15:00:00,
2013-04-04 11:21:00,76.0,76.0,30.01,SSE,150,17.0,18.0,99,-99.99,,,-99.99,,2013-04-04 15:21:00,
2013-04-04 11:32:00,76.0,76.0,30.01,SSE,150,17.0,18.0,99,-99.99,,,-99.99,,2013-04-04 15:32:00,
2013-04-04 11:42:00,76.0,76.0,30.01,SSE,150,17.0,18.0,99,-99.99,,,-99.99,,2013-04-04 15:42:00,
2013-04-04 11:52:00,76.0,76.0,30.01,SSE,150,17.0,18.0,99,-99.99,,,-99.99,,2013-04-04 15:52:00,
2013-04-04 12:00:00,77.0,76.0,30.02,South,170,17.0,18.0,98,-99.99,,,-99.99,,2013-04-04 16:00:00,
2013-04-04 12:22:00,77.0,76.0,30.02,South,170,17.0,18.0,98,-99.99,,,-99.99,,2013-04-04 16:22:00,
2013-04-04 12:32:00,77.0,76.0,30.02,South,170,17.0,18.0,98,-99.99,,,-99.99,,2013-04-04 16:32:00,
2013-04-04 12:42:00,77.0,76.0,30.02,South,170,17.0,18.0,98,-99.99,,,-99.99,,2013-04-04 16:42:00,
2013-04-04 12:52:00,77.0,76.0,30.02,South,170,17.0,18.0,98,-99.99,,,-99.99,,2013-04-04 16:52:00,
2013-04-04 13:00:00,77.0,77.0,30.01,SSE,160,15.0,17.0,98,-99.99,,,-99.99,,2013-04-04 17:00:00,
2013-04-04 13:22:00,77.0,77.0,30.01,SSE,160,15.0,17.0,98,-99.99,,,-99.99,,2013-04-04 17:22:00,
2013-04-04 13:32:00,77.0,77.0,30.01,SSE,160,15.0,17.0,98,-99.99,,,-99.99,,2013-04-04 17:32:00,
2013-04-04 13:42:00,77.0,77.0,30.01,SSE,160,15.0,17.0,98,-99.99,,,-99.99,,2013-04-04 17:42:00,
2013-04-04 13:51:00,77.0,77.0,30.01,SSE,160,15.0,17.0,98,-99.99,,,-99.99,,2013-04-04 17:51:00,
2013-04-04 14:00:00,78.0,77.0,29.99,South,170,15.0,16.0,99,-99.99,,,-99.99,,2013-04-04 18:00:00,
2013-04-04 14:22:00,78.0,77.0,29.99,South,170,15.0,16.0,99,-99.99,,,-99.99,,2013-04-04 18:22:00,
2013-04-04 14:32:00,78.0,77.0,29.99,South,170,15.0,16.0,99,-99.99,,,-99.99,,2013-04-04 18:32:00,
2013-04-04 14:42:00,78.0,77.0,29.99,South,170,15.0,16.0,99,-99.99,,,-99.99,,2013-04-04 18:42:00,
2013-04-04 14:52:00,78.0,77.0,29.99,South,170,15.0,16.0,99,-99.99,,,-99.99,,2013-04-04 18:52:00,
2013-04-04 15:00:00,79.0,78.0,30.00,South,170,11.0,13.0,98,-99.99,,,-99.99,,2013-04-04 19:00:00,
2013-04-04 15:21:00,79.0,78.0,30.00,South,170,11.0,13.0,98,-99.99,,,-99.99,,2013-04-04 19:21:00,
2013-04-04 15:31:00,79.0,78.0,30.00,South,170,11.0,13.0,98,-99.99,,,-99.99,,2013-04-04 19:31:00,
2013-04-04 15:42:00,79.0,78.0,30.00,South,170,11.0,13.0,98,-99.99,,,-99.99,,2013-04-04 19:42:00,
2013-04-04 15:52:00,79.0,78.0,30.00,South,170,11.0,13.0,98,-99.99,,,-99.99,,2013-04-04 19:52:00,
2013-04-04 16:00:00,79.0,79.0,29.98,South,170,8.0,9.0,98,-99.99,,,-99.99,,2013-04-04 20:00:00,
2013-04-04 16:21:00,79.0,79.0,29.98,South,170,8.0,9.0,98,-99.99,,,-99.99,,2013-04-04 20:21:00,
2013-04-04 16:32:00,79.0,79.0,29.98,South,170,8.0,9.0,98,-99.99,,,-99.99,,2013-04-04 20:32:00,
2013-04-04 16:42:00,79.0,79.0,29.98,South,170,8.0,9.0,98,-99.99,,,-99.99,,2013-04-04 20:42:00,
2013-04-04 16:52:00,79.0,79.0,29.98,South,170,8.0,9.0,98,-99.99,,,-99.99,,2013-04-04 20:52:00,
2013-04-04 17:00:00,79.0,79.0,29.98,South,170,7.0,8.0,98,-99.99,,,-99.99,,2013-04-04 21:00:00,
2013-04-04 17:22:00,79.0,79.0,29.98,South,170,7.0,8.0,98,-99.99,,,-99.99,,2013-04-04 21:22:00,
2013-04-04 17:32:00,79.0,79.0,29.98,South,170,7.0,8.0,98,-99.99,,,-99.99,,2013-04-04 21:32:00,
2013-04-04 17:42:00,79.0,79.0,29.98,South,170,7.0,8.0,98,-99.99,,,-99.99,,2013-04-04 21:42:00,
2013-04-04 17:52:00,79.0,79.0,29.98,South,170,7.0,8.0,98,-99.99,,,-99.99,,2013-04-04 21:52:00,
2013-04-04 18:22:00,80.0,80.0,29.98,SE,140,7.0,8.0,98,-99.99,,,-99.99,,2013-04-04 22:22:00,
2013-04-04 18:42:00,80.0,80.0,29.98,SE,140,7.0,8.0,98,-99.99,,,-99.99,,2013-04-04 22:42:00,
2013-04-04 18:52:00,80.0,80.0,29.98,SE,140,7.0,8.0,98,-99.99,,,-99.99,,2013-04-04 22:52:00,
2013-04-04 19:00:00,78.0,78.0,29.98,SE,140,7.0,7.0,98,-99.99,,,-99.99,,2013-04-04 23:00:00,
2013-04-04 19:21:00,78.0,78.0,29.98,SE,140,7.0,7.0,98,-99.99,,,-99.99,,2013-04-04 23:21:00,
2013-04-04 19:32:00,78.0,78.0,29.98,SE,140,7.0,7.0,98,-99.99,,,-99.99,,2013-04-04 23:32:00,
2013-04-04 19:42:00,78.0,78.0,29.98,SE,140,7.0,7.0,98,-99.99,,,-99.99,,2013-04-04 23:42:00,
2013-04-04 19:52:00,78.0,78.0,29.98,SE,140,7.0,7.0,98,-99.99,,,-99.99,,2013-04-04 23:52:00,
2013-04-04 20:00:00,77.0,76.0,29.97,SE,140,10.0,10.0,98,-99.99,,,-99.99,,2013-04-05 00:00:00,
2013-04-04 20:21:00,77.0,76.0,29.97,SE,140,10.0,10.0,98,-99.99,,,-99.99,,2013-04-05 00:21:00,
2013-04-04 20:32:00,77.0,76.0,29.97,SE,140,10.0,10.0,98,-99.99,,,-99.99,,2013-04-05 00:32:00,
2013-04-04 20:41:00,77.0,76.0,29.97,SE,140,10.0,10.0,98,-99.99,,,-99.99,,2013-04-05 00:41:00,
2013-04-04 20:52:00,77.0,76.0,29.97,SE,140,10.0,10.0,98,-99.99,,,-99.99,,2013-04-05 00:52:00,
2013-04-04 21:00:00,76.0,76.0,29.95,SE,140,15.0,15.0,99,-99.99,,,-99.99,,2013-04-05 01:00:00,
2013-04-04 21:21:00,76.0,76.0,29.95,SE,140,15.0,15.0,99,-99.99,,,-99.99,,2013-04-05 01:21:00,
2013-04-04 21:31:00,76.0,76.0,29.95,SE,140,15.0,15.0,99,-99.99,,,-99.99,,2013-04-05 01:31:00,
2013-04-04 21:41:00,76.0,76.0,29.95,SE,140,15.0,15.0,99,-99.99,,,-99.99,,2013-04-05 01:41:00,
2013-04-04 21:52:00,76.0,76.0,29.95,SE,140,15.0,15.0,99,-99.99,,,-99.99,,2013-04-05 01:52:00,
2013-04-04 22:00:00,76.0,76.0,29.96,SSE,150,13.0,14.0,99,-99.99,,,-99.99,,2013-04-05 02:00:00,
2013-04-04 22:21:00,76.0,76.0,29.96,SSE,150,13.0,14.0,99,-99.99,,,-99.99,,2013-04-05 02:21:00,
2013-04-04 22:31:00,76.0,76.0,29.96,SSE,150,13.0,14.0,99,-99.99,,,-99.99,,2013-04-05 02:31:00,
2013-04-04 22:41:00,76.0,76.0,29.96,SSE,150,13.0,14.0,99,-99.99,,,-99.99,,2013-04-05 02:41:00,
2013-04-04 22:51:00,76.0,76.0,29.96,SSE,150,13.0,14.0,99,-99.99,,,-99.99,,2013-04-05 02:51:00,
2013-04-04 23:00:00,76.0,75.0,29.98,SSE,160,13.0,13.0,98,-99.99,,,-99.99,,2013-04-05 03:00:00,
2013-04-04 23:21:00,76.0,75.0,29.98,SSE,160,13.0,13.0,98,-99.99,,,-99.99,,2013-04-05 03:21:00,
2013-04-04 23:32:00,76.0,75.0,29.98,SSE,160,13.0,13.0,98,-99.99,,,-99.99,,2013-04-05 03:32:00,
2013-04-04 23:42:00,76.0,75.0,29.98,SSE,160,13.0,13.0,98,-99.99,,,-99.99,,2013-04-05 03:42:00,
2013-04-04 23:53:00,76.0,75.0,29.98,SSE,160,13.0,13.0,98,-99.99,,,-99.99,,2013-04-05 03:53:00,